Time;durP1;ratioP1;P1;durP2;ratioP2;P2;SDS_P1;SDS_P2;PMS_P1;PMS_P2;Temp;Humidity;BMP_temperature;BMP_pressure;BME280_temperature;BME280_humidity;BME280_pressure;Samples;Min_cycle;Max_cycle;Signal;HPM_P1;HPM_P2
2022/10/15 00:02:00;;;;;;;;;;;15.20;88.70;;;;;;5058788;28;20348;-84
2022/10/15 00:04:28;;;;;;;;;;;15.30;88.90;;;;;;5058555;28;19967;-84
2022/10/15 00:06:53;;;;;;;;;;;15.30;88.80;;;;;;5054507;28;19919;-84
2022/10/15 00:09:19;;;;;;;;;;;15.20;88.90;;;;;;5055444;28;19917;-84
2022/10/15 00:11:44;;;;;;;;;;;15.20;88.90;;;;;;5052069;28;19921;-84
2022/10/15 00:14:10;;;;;;;;;;;15.30;88.80;;;;;;5053233;28;20862;-84
2022/10/15 00:16:35;;;;;;;;;;;15.30;88.70;;;;;;5054787;28;20304;-84
2022/10/15 00:19:01;;;;;;;;;;;15.30;88.80;;;;;;5055060;28;20391;-84
2022/10/15 00:21:27;;;;;;;;;;;15.20;88.70;;;;;;5052409;28;19917;-84
2022/10/15 00:23:52;;;;;;;;;;;15.20;88.70;;;;;;5051769;28;19913;-83
2022/10/15 00:26:22;;;;;;;;;;;15.20;88.70;;;;;;5045438;28;19913;-84
2022/10/15 00:28:50;;;;;;;;;;;15.20;88.70;;;;;;5052107;28;19913;-84
2022/10/15 00:31:18;;;;;;;;;;;15.20;88.70;;;;;;5050898;28;19983;-84
2022/10/15 00:33:44;;;;;;;;;;;15.10;89.00;;;;;;5052263;28;19924;-84
2022/10/15 00:36:11;;;;;;;;;;;15.10;88.80;;;;;;5048361;28;19913;-82
2022/10/15 00:38:37;;;;;;;;;;;15.20;88.90;;;;;;5050429;28;20381;-83
2022/10/15 00:41:04;;;;;;;;;;;15.30;88.70;;;;;;5048472;28;19913;-83
2022/10/15 00:43:38;;;;;;;;;;;15.30;88.60;;;;;;5044375;28;20300;-82
2022/10/15 00:46:05;;;;;;;;;;;15.30;88.50;;;;;;5040471;28;20353;-83
2022/10/15 00:48:30;;;;;;;;;;;15.30;88.50;;;;;;5052964;28;19913;-84
2022/10/15 00:50:57;;;;;;;;;;;15.20;88.60;;;;;;5052138;28;19966;-83
2022/10/15 00:53:23;;;;;;;;;;;15.10;88.60;;;;;;5053634;28;19964;-84
2022/10/15 00:55:49;;;;;;;;;;;15.10;88.70;;;;;;5048647;28;19913;-84
2022/10/15 00:58:18;;;;;;;;;;;15.10;88.70;;;;;;5053253;28;19936;-84
2022/10/15 01:00:44;;;;;;;;;;;15.20;88.60;;;;;;5048904;28;20003;-83
2022/10/15 01:03:11;;;;;;;;;;;15.30;88.60;;;;;;5051968;28;20042;-83
2022/10/15 01:05:37;;;;;;;;;;;15.30;88.60;;;;;;5052061;28;20269;-83
2022/10/15 01:08:02;;;;;;;;;;;15.30;88.50;;;;;;5052311;28;20038;-83
2022/10/15 01:10:33;;;;;;;;;;;15.20;88.60;;;;;;5051377;28;20289;-83
2022/10/15 01:13:02;;;;;;;;;;;15.20;88.60;;;;;;5051436;28;19920;-82
2022/10/15 01:15:27;;;;;;;;;;;15.20;88.70;;;;;;5048565;28;20023;-83
2022/10/15 01:17:55;;;;;;;;;;;15.20;88.50;;;;;;5049573;28;20020;-83
2022/10/15 01:20:40;;;;;;;;;;;15.20;88.60;;;;;;5052400;28;20421;-83
2022/10/15 01:23:13;;;;;;;;;;;15.20;88.60;;;;;;5044268;28;19986;-84
2022/10/15 01:25:38;;;;;;;;;;;15.10;88.60;;;;;;5047743;28;19966;-83
2022/10/15 01:28:23;;;;;;;;;;;15.10;88.70;;;;;;5052219;28;19920;-82
2022/10/15 01:30:51;;;;;;;;;;;15.20;88.80;;;;;;5049722;28;19913;-84
2022/10/15 01:33:20;;;;;;;;;;;15.10;88.90;;;;;;5045894;28;19921;-83
2022/10/15 01:35:50;;;;;;;;;;;15.20;88.90;;;;;;5050365;28;19913;-83
2022/10/15 01:38:24;;;;;;;;;;;15.20;88.70;;;;;;5051742;28;19921;-84
2022/10/15 01:40:53;;;;;;;;;;;15.10;88.60;;;;;;5040382;28;19999;-83
2022/10/15 01:43:27;;;;;;;;;;;15.20;88.40;;;;;;5051361;28;19912;-83
2022/10/15 01:45:58;;;;;;;;;;;15.10;88.40;;;;;;5052110;28;19913;-83
2022/10/15 01:48:25;;;;;;;;;;;15.10;88.50;;;;;;5050307;28;19952;-83
2022/10/15 01:50:53;;;;;;;;;;;14.80;88.60;;;;;;5046933;28;20020;-83
2022/10/15 01:53:25;;;;;;;;;;;14.90;88.80;;;;;;5068488;28;19923;-84
2022/10/15 01:55:53;;;;;;;;;;;14.90;89.00;;;;;;5061949;28;20324;-83
2022/10/15 01:58:19;;;;;;;;;;;14.80;88.60;;;;;;5066032;28;19912;-84
2022/10/15 02:00:46;;;;;;;;;;;14.70;89.00;;;;;;5053473;28;19966;-85
2022/10/15 02:03:11;;;;;;;;;;;14.60;89.00;;;;;;5051402;28;19917;-84
2022/10/15 02:05:39;;;;;;;;;;;14.60;89.30;;;;;;5053075;28;19919;-84
2022/10/15 02:08:24;;;;;;;;;;;14.60;89.30;;;;;;5050841;28;19925;-83
2022/10/15 02:10:55;;;;;;;;;;;14.60;89.30;;;;;;5048075;28;20372;-85
2022/10/15 02:13:46;;;;;;;;;;;14.60;89.40;;;;;;5046906;28;19924;-84
2022/10/15 02:16:24;;;;;;;;;;;14.60;89.30;;;;;;5060159;28;20364;-87
2022/10/15 02:18:52;;;;;;;;;;;14.70;89.20;;;;;;5044295;28;19920;-80
2022/10/15 02:21:23;;;;;;;;;;;14.60;89.40;;;;;;5053595;28;20372;-85
2022/10/15 02:23:52;;;;;;;;;;;14.60;89.50;;;;;;5049103;28;19920;-81
2022/10/15 02:26:19;;;;;;;;;;;14.60;89.40;;;;;;5049158;28;19912;-86
2022/10/15 02:28:51;;;;;;;;;;;14.60;89.60;;;;;;5045617;28;19971;-89
2022/10/15 02:31:18;;;;;;;;;;;14.60;89.70;;;;;;5052611;28;19960;-84
2022/10/15 02:33:45;;;;;;;;;;;14.50;89.80;;;;;;5043647;28;20296;-83
2022/10/15 02:36:11;;;;;;;;;;;14.60;89.80;;;;;;5041309;28;19967;-85
2022/10/15 02:38:39;;;;;;;;;;;14.50;89.80;;;;;;5041841;28;19912;-85
2022/10/15 02:41:06;;;;;;;;;;;14.50;89.90;;;;;;5043249;28;19917;-84
2022/10/15 02:43:31;;;;;;;;;;;14.50;89.90;;;;;;5045780;28;19939;-84
2022/10/15 02:45:57;;;;;;;;;;;14.50;90.00;;;;;;5041483;28;19921;-83
2022/10/15 02:48:22;;;;;;;;;;;14.60;90.00;;;;;;5049637;28;19913;-83
2022/10/15 02:50:48;;;;;;;;;;;14.50;89.80;;;;;;5041661;28;19966;-83
2022/10/15 02:53:14;;;;;;;;;;;14.50;89.90;;;;;;5038719;28;19913;-84
2022/10/15 02:55:39;;;;;;;;;;;14.60;90.00;;;;;;5042154;28;19921;-84
2022/10/15 02:58:05;;;;;;;;;;;14.60;89.80;;;;;;5042266;28;20055;-84
2022/10/15 03:00:30;;;;;;;;;;;14.60;89.70;;;;;;5044682;28;19924;-84
2022/10/15 03:02:56;;;;;;;;;;;14.50;90.10;;;;;;5047485;28;20458;-84
2022/10/15 03:05:21;;;;;;;;;;;14.50;90.00;;;;;;5047877;28;19943;-84
2022/10/15 03:07:46;;;;;;;;;;;14.50;89.70;;;;;;5048662;28;19909;-85
2022/10/15 03:10:12;;;;;;;;;;;14.50;90.00;;;;;;5049212;28;19963;-84
2022/10/15 03:12:37;;;;;;;;;;;14.60;89.70;;;;;;5049992;28;19909;-84
2022/10/15 03:15:03;;;;;;;;;;;14.50;89.80;;;;;;5050385;28;19921;-84
2022/10/15 03:17:29;;;;;;;;;;;14.50;89.90;;;;;;5052658;28;19995;-84
2022/10/15 03:19:54;;;;;;;;;;;14.50;89.80;;;;;;5051384;28;19915;-84
2022/10/15 03:22:19;;;;;;;;;;;14.50;89.90;;;;;;5052523;28;20458;-84
2022/10/15 03:24:45;;;;;;;;;;;14.60;89.80;;;;;;5050391;28;20015;-85
2022/10/15 03:27:11;;;;;;;;;;;14.50;89.90;;;;;;5050212;28;19917;-84
2022/10/15 03:29:36;;;;;;;;;;;14.60;89.90;;;;;;5050708;28;20016;-84
2022/10/15 03:32:02;;;;;;;;;;;14.70;89.60;;;;;;5056782;28;19913;-84
2022/10/15 03:34:27;;;;;;;;;;;14.60;89.40;;;;;;5062295;28;19924;-84
2022/10/15 03:36:52;;;;;;;;;;;14.60;89.60;;;;;;5055078;28;20026;-84
2022/10/15 03:39:18;;;;;;;;;;;14.60;89.50;;;;;;5052342;28;20186;-84
2022/10/15 03:41:43;;;;;;;;;;;14.50;89.60;;;;;;5050986;28;19919;-84
2022/10/15 03:44:09;;;;;;;;;;;14.50;89.90;;;;;;5035370;28;19913;-84
2022/10/15 03:46:34;;;;;;;;;;;14.60;90.10;;;;;;5035426;28;19909;-85
2022/10/15 03:49:00;;;;;;;;;;;14.50;90.20;;;;;;5048084;28;20300;-84
2022/10/15 03:51:25;;;;;;;;;;;14.50;90.20;;;;;;5053708;28;19960;-84
2022/10/15 03:53:52;;;;;;;;;;;14.50;90.30;;;;;;5050472;28;19920;-84
2022/10/15 03:56:17;;;;;;;;;;;14.50;90.20;;;;;;5034319;28;19913;-84
2022/10/15 03:58:42;;;;;;;;;;;14.50;90.20;;;;;;5050195;28;19977;-85
2022/10/15 04:01:09;;;;;;;;;;;14.50;90.30;;;;;;5052854;28;20384;-84
2022/10/15 04:03:35;;;;;;;;;;;14.40;90.10;;;;;;5063265;28;19954;-85
2022/10/15 04:06:00;;;;;;;;;;;14.30;90.20;;;;;;5070842;28;19952;-84
2022/10/15 04:08:25;;;;;;;;;;;14.30;90.10;;;;;;5065187;28;19920;-85
2022/10/15 04:10:51;;;;;;;;;;;14.20;90.20;;;;;;5057033;28;19913;-86
2022/10/15 04:13:16;;;;;;;;;;;14.10;90.20;;;;;;5057556;28;19932;-85
2022/10/15 04:15:42;;;;;;;;;;;14.10;90.20;;;;;;5053881;28;19921;-85
2022/10/15 04:18:07;;;;;;;;;;;14.10;90.20;;;;;;5054982;28;19913;-85
2022/10/15 04:20:33;;;;;;;;;;;14.10;90.00;;;;;;5056716;28;20077;-84
2022/10/15 04:22:58;;;;;;;;;;;14.00;90.10;;;;;;5055714;28;20435;-85
2022/10/15 04:25:24;;;;;;;;;;;13.90;90.20;;;;;;5055877;28;19909;-85
2022/10/15 04:27:49;;;;;;;;;;;13.90;90.30;;;;;;5055041;28;19915;-84
2022/10/15 04:30:15;;;;;;;;;;;13.90;90.30;;;;;;5055373;28;20321;-85
2022/10/15 04:32:40;;;;;;;;;;;13.80;90.30;;;;;;5055846;28;19913;-85
2022/10/15 04:35:06;;;;;;;;;;;13.70;90.50;;;;;;5057009;28;19917;-85
2022/10/15 04:37:32;;;;;;;;;;;13.80;90.40;;;;;;5054258;28;19913;-85
2022/10/15 04:39:58;;;;;;;;;;;13.80;90.50;;;;;;5055155;28;20364;-84
2022/10/15 04:42:23;;;;;;;;;;;13.80;90.60;;;;;;5054535;28;19913;-84
2022/10/15 04:44:48;;;;;;;;;;;13.80;90.60;;;;;;5055165;28;19920;-85
2022/10/15 04:47:14;;;;;;;;;;;13.90;90.50;;;;;;5056217;28;19961;-85
2022/10/15 04:49:39;;;;;;;;;;;14.00;90.40;;;;;;5054617;28;20312;-85
2022/10/15 04:52:05;;;;;;;;;;;14.00;90.30;;;;;;5054264;28;19924;-85
2022/10/15 04:54:30;;;;;;;;;;;14.00;90.50;;;;;;5054070;28;19921;-86
2022/10/15 04:56:56;;;;;;;;;;;14.00;90.40;;;;;;5048039;28;19960;-85
2022/10/15 04:59:21;;;;;;;;;;;14.00;90.50;;;;;;5053371;28;19915;-84
2022/10/15 05:01:47;;;;;;;;;;;14.00;90.40;;;;;;5054494;28;20380;-85
2022/10/15 05:04:12;;;;;;;;;;;14.00;90.60;;;;;;5053985;28;19912;-85
2022/10/15 05:06:38;;;;;;;;;;;14.00;90.50;;;;;;5056161;28;19909;-86
2022/10/15 05:09:03;;;;;;;;;;;14.00;90.50;;;;;;5053004;28;19916;-85
2022/10/15 05:11:29;;;;;;;;;;;14.00;90.40;;;;;;5053127;28;19919;-84
2022/10/15 05:13:55;;;;;;;;;;;14.10;90.30;;;;;;5055126;28;19920;-86
2022/10/15 05:16:22;;;;;;;;;;;14.10;90.00;;;;;;5054351;28;19959;-85
2022/10/15 05:18:49;;;;;;;;;;;14.10;90.30;;;;;;5055031;28;19913;-85
2022/10/15 05:21:15;;;;;;;;;;;14.10;90.40;;;;;;5053473;28;19909;-84
2022/10/15 05:23:41;;;;;;;;;;;14.10;90.30;;;;;;5055250;28;19909;-84
2022/10/15 05:26:09;;;;;;;;;;;14.10;90.00;;;;;;5053989;28;19913;-85
2022/10/15 05:28:35;;;;;;;;;;;14.10;90.00;;;;;;5053007;28;19960;-85
2022/10/15 05:31:07;;;;;;;;;;;14.00;90.00;;;;;;5053586;28;20446;-86
2022/10/15 05:33:33;;;;;;;;;;;14.00;90.10;;;;;;5055711;28;19913;-84
2022/10/15 05:36:19;;;;;;;;;;;14.00;90.00;;;;;;5054049;28;19916;-84
2022/10/15 05:38:46;;;;;;;;;;;14.00;90.20;;;;;;5053976;28;19909;-84
2022/10/15 05:41:11;;;;;;;;;;;14.00;90.30;;;;;;5055791;28;19966;-85
2022/10/15 05:43:37;;;;;;;;;;;13.80;90.30;;;;;;5052702;28;19913;-84
2022/10/15 05:46:02;;;;;;;;;;;13.80;90.40;;;;;;5053260;28;19935;-86
2022/10/15 05:48:28;;;;;;;;;;;13.70;90.30;;;;;;5073652;28;20379;-84
2022/10/15 05:50:59;;;;;;;;;;;13.70;90.40;;;;;;5087872;28;19916;-86
2022/10/15 05:53:25;;;;;;;;;;;13.60;90.40;;;;;;5081584;28;19913;-86
2022/10/15 05:55:52;;;;;;;;;;;13.60;90.60;;;;;;5052315;28;19921;-85
2022/10/15 05:58:17;;;;;;;;;;;13.60;90.50;;;;;;5034456;28;19981;-85
2022/10/15 06:00:43;;;;;;;;;;;13.50;90.50;;;;;;5049444;28;20397;-84
2022/10/15 06:03:10;;;;;;;;;;;13.50;90.50;;;;;;5056393;28;19919;-84
2022/10/15 06:05:36;;;;;;;;;;;13.50;90.60;;;;;;5055083;28;19913;-86
2022/10/15 06:08:01;;;;;;;;;;;13.60;90.60;;;;;;5055166;28;19970;-85
2022/10/15 06:10:27;;;;;;;;;;;13.60;90.70;;;;;;5057683;28;19909;-85
2022/10/15 06:12:52;;;;;;;;;;;13.70;90.70;;;;;;5042709;28;19909;-85
2022/10/15 06:15:18;;;;;;;;;;;13.80;90.60;;;;;;5038383;28;19928;-85
2022/10/15 06:17:44;;;;;;;;;;;13.90;90.80;;;;;;5058965;28;19913;-85
2022/10/15 06:20:10;;;;;;;;;;;14.00;90.40;;;;;;5054291;28;20010;-85
2022/10/15 06:22:35;;;;;;;;;;;14.00;90.30;;;;;;5054566;28;19962;-85
2022/10/15 06:25:01;;;;;;;;;;;14.00;90.60;;;;;;5054918;28;19909;-86
2022/10/15 06:27:26;;;;;;;;;;;14.00;90.70;;;;;;5052484;28;19924;-86
2022/10/15 06:29:51;;;;;;;;;;;14.00;90.50;;;;;;5054567;28;19955;-86
2022/10/15 06:32:17;;;;;;;;;;;14.10;90.50;;;;;;5065551;22;19925;-85
2022/10/15 06:34:43;;;;;;;;;;;14.10;90.60;;;;;;5022420;28;19913;-86
2022/10/15 06:37:08;;;;;;;;;;;14.10;90.40;;;;;;5025227;28;19917;-85
2022/10/15 06:39:33;;;;;;;;;;;14.20;90.50;;;;;;5011630;28;19932;-85
2022/10/15 06:41:59;;;;;;;;;;;14.20;90.40;;;;;;5012632;28;20298;-86
2022/10/15 06:44:24;;;;;;;;;;;14.20;90.60;;;;;;5011950;28;19920;-86
2022/10/15 06:46:50;;;;;;;;;;;14.30;90.50;;;;;;5012455;28;19909;-85
2022/10/15 06:49:15;;;;;;;;;;;14.30;90.40;;;;;;5018421;28;19913;-85
2022/10/15 06:51:41;;;;;;;;;;;14.40;90.30;;;;;;5021372;28;19909;-85
2022/10/15 06:54:06;;;;;;;;;;;14.40;90.10;;;;;;5034285;28;19937;-86
2022/10/15 06:56:31;;;;;;;;;;;14.30;89.80;;;;;;5011006;28;19941;-85
2022/10/15 06:58:57;;;;;;;;;;;14.40;89.60;;;;;;5011272;28;19913;-85
2022/10/15 07:01:22;;;;;;;;;;;14.40;89.60;;;;;;5010695;28;19928;-86
2022/10/15 07:03:48;;;;;;;;;;;14.30;89.80;;;;;;5009534;28;20000;-86
2022/10/15 07:06:14;;;;;;;;;;;14.30;89.90;;;;;;5018936;28;19914;-85
2022/10/15 07:08:40;;;;;;;;;;;14.30;90.10;;;;;;5031149;28;19913;-85
2022/10/15 07:11:08;;;;;;;;;;;14.30;90.00;;;;;;5012253;28;19909;-85
2022/10/15 07:13:33;;;;;;;;;;;14.20;89.90;;;;;;5009557;28;20112;-85
2022/10/15 07:16:02;;;;;;;;;;;14.20;90.10;;;;;;5010732;28;19974;-86
2022/10/15 07:18:27;;;;;;;;;;;14.20;90.20;;;;;;5010096;28;20291;-86
2022/10/15 07:20:55;;;;;;;;;;;14.10;90.20;;;;;;5012813;28;19913;-86
2022/10/15 07:23:20;;;;;;;;;;;14.10;90.20;;;;;;5023199;28;20004;-86
2022/10/15 07:25:46;;;;;;;;;;;14.10;90.30;;;;;;5018548;28;19953;-86
2022/10/15 07:28:11;;;;;;;;;;;14.10;90.10;;;;;;5024199;28;19928;-86
2022/10/15 07:30:37;;;;;;;;;;;14.10;90.20;;;;;;5032850;28;19909;-86
2022/10/15 07:33:02;;;;;;;;;;;14.20;90.20;;;;;;5033330;28;20272;-85
2022/10/15 07:35:28;;;;;;;;;;;14.20;90.20;;;;;;5017987;28;20375;-86
2022/10/15 07:37:54;;;;;;;;;;;14.30;90.20;;;;;;5021265;28;19924;-86
2022/10/15 07:40:19;;;;;;;;;;;14.30;90.20;;;;;;5012883;28;19953;-86
2022/10/15 07:42:51;;;;;;;;;;;14.20;90.30;;;;;;5013970;28;19919;-85
2022/10/15 07:45:16;;;;;;;;;;;14.30;90.40;;;;;;5034868;28;20224;-86
2022/10/15 07:47:42;;;;;;;;;;;14.30;90.40;;;;;;5017247;28;19910;-85
2022/10/15 07:50:07;;;;;;;;;;;14.40;90.30;;;;;;5028785;28;19913;-86
2022/10/15 07:52:33;;;;;;;;;;;14.50;90.30;;;;;;5015561;28;19993;-86
2022/10/15 07:54:58;;;;;;;;;;;14.50;90.30;;;;;;5014620;28;19925;-86
2022/10/15 07:57:24;;;;;;;;;;;14.60;90.30;;;;;;5030164;28;19997;-86
2022/10/15 07:59:49;;;;;;;;;;;14.80;90.00;;;;;;5014137;28;19913;-86
2022/10/15 08:02:17;;;;;;;;;;;14.70;89.90;;;;;;5012830;28;20381;-86
2022/10/15 08:04:43;;;;;;;;;;;14.80;89.90;;;;;;5025446;28;19909;-85
2022/10/15 08:07:08;;;;;;;;;;;14.90;89.60;;;;;;5020455;28;19967;-86
2022/10/15 08:09:34;;;;;;;;;;;15.00;89.50;;;;;;5013158;28;19928;-85
2022/10/15 08:11:59;;;;;;;;;;;15.10;89.20;;;;;;5013076;28;20398;-86
2022/10/15 08:14:25;;;;;;;;;;;15.10;89.00;;;;;;5014726;28;19917;-86
2022/10/15 08:16:50;;;;;;;;;;;15.20;88.50;;;;;;5016142;28;19935;-86
2022/10/15 08:19:16;;;;;;;;;;;15.30;88.30;;;;;;5021380;28;20399;-86
2022/10/15 08:21:42;;;;;;;;;;;15.40;88.20;;;;;;5013771;28;19959;-85
2022/10/15 08:24:08;;;;;;;;;;;15.40;87.80;;;;;;5013177;28;19921;-86
2022/10/15 08:26:33;;;;;;;;;;;15.50;87.70;;;;;;5012587;28;19914;-85
2022/10/15 08:28:59;;;;;;;;;;;15.60;87.40;;;;;;5012729;28;20371;-85
2022/10/15 08:31:24;;;;;;;;;;;15.60;87.00;;;;;;5019540;28;19953;-86
2022/10/15 08:33:50;;;;;;;;;;;15.60;87.10;;;;;;5026181;28;19917;-85
2022/10/15 08:36:15;;;;;;;;;;;15.70;86.30;;;;;;5032528;28;19909;-86
2022/10/15 08:38:41;;;;;;;;;;;15.90;86.10;;;;;;5037369;28;19963;-86
2022/10/15 08:41:17;;;;;;;;;;;15.90;85.60;;;;;;5032999;28;19913;-85
2022/10/15 08:43:45;;;;;;;;;;;16.00;85.10;;;;;;5027915;28;19909;-86
2022/10/15 08:46:13;;;;;;;;;;;15.80;85.10;;;;;;5022272;28;19914;-86
2022/10/15 08:48:47;;;;;;;;;;;15.80;85.20;;;;;;5032464;28;19909;-85
2022/10/15 08:51:15;;;;;;;;;;;15.80;85.60;;;;;;5014430;28;19917;-86
2022/10/15 08:53:47;;;;;;;;;;;15.60;85.70;;;;;;5013738;28;19928;-86
2022/10/15 08:56:16;;;;;;;;;;;15.60;86.20;;;;;;5012831;28;19916;-85
2022/10/15 08:58:41;;;;;;;;;;;15.60;86.30;;;;;;5013085;28;19920;-86
2022/10/15 09:01:15;;;;;;;;;;;15.60;86.10;;;;;;5024165;28;19909;-86
2022/10/15 09:03:50;;;;;;;;;;;15.50;86.50;;;;;;5033053;28;19909;-85
2022/10/15 09:06:23;;;;;;;;;;;15.70;86.20;;;;;;5031942;28;19909;-85
2022/10/15 09:08:57;;;;;;;;;;;15.70;86.00;;;;;;5031600;28;20007;-85
2022/10/15 09:11:37;;;;;;;;;;;15.80;86.70;;;;;;5028902;28;20284;-85
2022/10/15 09:14:04;;;;;;;;;;;15.90;85.70;;;;;;5019904;28;19914;-85
2022/10/15 09:16:32;;;;;;;;;;;16.00;84.50;;;;;;5011725;28;19910;-86
2022/10/15 09:18:59;;;;;;;;;;;16.00;84.60;;;;;;5010570;28;19917;-86
2022/10/15 09:21:25;;;;;;;;;;;16.10;84.90;;;;;;5017132;28;19909;-86
2022/10/15 09:23:54;;;;;;;;;;;16.00;85.40;;;;;;5027342;28;19918;-86
2022/10/15 09:26:38;;;;;;;;;;;16.10;85.60;;;;;;5019819;28;19913;-85
2022/10/15 09:29:14;;;;;;;;;;;16.20;85.00;;;;;;5021554;28;20043;-85
2022/10/15 09:31:44;;;;;;;;;;;16.30;84.50;;;;;;5031538;28;20347;-86
2022/10/15 09:34:30;;;;;;;;;;;16.60;82.90;;;;;;5032396;28;19919;-86
2022/10/15 09:36:57;;;;;;;;;;;16.80;82.10;;;;;;5013531;28;19909;-86
2022/10/15 09:39:35;;;;;;;;;;;16.80;82.50;;;;;;5008565;28;19919;-86
2022/10/15 09:42:09;;;;;;;;;;;16.80;82.40;;;;;;5011104;28;19914;-86
2022/10/15 09:44:37;;;;;;;;;;;16.70;82.60;;;;;;5010511;28;19913;-86
2022/10/15 09:47:13;;;;;;;;;;;16.60;82.50;;;;;;5015678;28;19909;-86
2022/10/15 09:49:38;;;;;;;;;;;16.70;82.50;;;;;;5011280;28;20008;-85
2022/10/15 09:52:10;;;;;;;;;;;16.80;82.60;;;;;;5011955;28;20004;-85
2022/10/15 09:54:35;;;;;;;;;;;16.80;82.30;;;;;;5018130;28;19917;-86
2022/10/15 09:57:01;;;;;;;;;;;17.00;81.70;;;;;;5024536;28;19913;-85
2022/10/15 09:59:26;;;;;;;;;;;16.90;82.20;;;;;;5015884;28;19913;-86
2022/10/15 10:02:03;;;;;;;;;;;16.90;81.40;;;;;;5006897;28;19913;-86
2022/10/15 10:04:29;;;;;;;;;;;16.90;80.60;;;;;;4990965;28;19910;-85
2022/10/15 10:06:56;;;;;;;;;;;17.10;80.40;;;;;;4993401;28;20004;-85
2022/10/15 10:09:24;;;;;;;;;;;17.00;80.10;;;;;;5018319;28;19925;-85
2022/10/15 10:11:54;;;;;;;;;;;17.10;80.70;;;;;;5029257;28;19944;-85
2022/10/15 10:14:28;;;;;;;;;;;17.20;81.00;;;;;;5046629;28;19956;-86
2022/10/15 10:17:26;;;;;;;;;;;17.30;79.70;;;;;;5031100;28;19960;-86
2022/10/15 10:20:10;;;;;;;;;;;17.20;79.40;;;;;;4992455;28;19913;-86
2022/10/15 10:22:43;;;;;;;;;;;17.20;79.70;;;;;;5019730;28;20015;-85
2022/10/15 10:25:27;;;;;;;;;;;17.30;79.70;;;;;;5016015;28;19917;-86
2022/10/15 10:27:54;;;;;;;;;;;17.50;79.50;;;;;;5010321;28;19914;-86
2022/10/15 10:30:19;;;;;;;;;;;17.60;78.90;;;;;;5010557;28;20012;-86
2022/10/15 10:32:45;;;;;;;;;;;17.60;78.80;;;;;;5009341;28;19981;-86
2022/10/15 10:35:21;;;;;;;;;;;17.70;78.80;;;;;;5007803;28;19917;-87
2022/10/15 10:37:47;;;;;;;;;;;17.70;78.90;;;;;;5010446;28;19918;-86
2022/10/15 10:40:30;;;;;;;;;;;17.60;79.50;;;;;;5017725;28;20100;-86
2022/10/15 10:43:09;;;;;;;;;;;17.70;79.60;;;;;;5008288;28;19924;-86
2022/10/15 10:45:34;;;;;;;;;;;17.60;80.60;;;;;;5010518;28;19913;-86
2022/10/15 10:48:16;;;;;;;;;;;17.60;80.40;;;;;;5008256;28;20291;-85
2022/10/15 10:50:42;;;;;;;;;;;17.50;80.70;;;;;;5008569;28;19932;-86
2022/10/15 10:53:22;;;;;;;;;;;17.50;80.60;;;;;;5024079;28;19956;-86
2022/10/15 10:55:48;;;;;;;;;;;17.60;80.30;;;;;;5009291;28;20011;-86
2022/10/15 10:58:17;;;;;;;;;;;17.60;80.60;;;;;;5008656;28;20000;-86
2022/10/15 11:00:44;;;;;;;;;;;17.80;80.50;;;;;;5028370;28;19917;-87
2022/10/15 11:03:15;;;;;;;;;;;17.80;81.00;;;;;;5015119;28;20001;-86
2022/10/15 11:05:41;;;;;;;;;;;18.00;80.60;;;;;;5014887;28;20000;-86
2022/10/15 11:08:21;;;;;;;;;;;17.90;81.40;;;;;;5029703;28;19963;-86
2022/10/15 11:11:18;;;;;;;;;;;17.80;81.70;;;;;;5012895;28;19949;-86
2022/10/15 11:13:46;;;;;;;;;;;17.80;81.70;;;;;;4996656;28;19913;-86
2022/10/15 11:16:32;;;;;;;;;;;17.80;81.40;;;;;;5009110;28;19941;-86
2022/10/15 11:19:07;;;;;;;;;;;17.60;82.30;;;;;;4990931;28;19910;-86
2022/10/15 11:21:53;;;;;;;;;;;17.80;82.30;;;;;;4991085;28;19996;-86
2022/10/15 11:24:26;;;;;;;;;;;17.70;83.00;;;;;;4990351;28;19909;-86
2022/10/15 11:26:58;;;;;;;;;;;17.80;83.70;;;;;;5005772;28;19956;-86
2022/10/15 11:29:26;;;;;;;;;;;17.60;83.90;;;;;;4988746;28;20347;-86
2022/10/15 11:32:08;;;;;;;;;;;17.50;84.60;;;;;;5018331;28;19919;-86
2022/10/15 11:34:53;;;;;;;;;;;17.40;84.20;;;;;;5020418;28;19921;-87
2022/10/15 11:37:27;;;;;;;;;;;17.60;84.30;;;;;;5025660;28;19909;-86
2022/10/15 11:40:04;;;;;;;;;;;17.50;84.40;;;;;;5018772;28;20265;-86
2022/10/15 11:42:33;;;;;;;;;;;17.70;84.60;;;;;;5008132;28;19933;-87
2022/10/15 11:44:58;;;;;;;;;;;17.90;83.80;;;;;;5009178;28;19909;-87
2022/10/15 11:47:43;;;;;;;;;;;18.10;84.00;;;;;;5009497;28;19936;-86
2022/10/15 11:50:23;;;;;;;;;;;18.20;82.70;;;;;;5019195;28;19996;-86
2022/10/15 11:53:03;;;;;;;;;;;18.20;82.90;;;;;;5028501;28;19909;-87
2022/10/15 11:55:40;;;;;;;;;;;18.10;83.10;;;;;;5045661;28;19913;-86
2022/10/15 11:58:22;;;;;;;;;;;18.10;82.90;;;;;;5030139;28;19909;-85
2022/10/15 12:00:54;;;;;;;;;;;18.10;81.90;;;;;;5026886;28;19971;-86
2022/10/15 12:03:24;;;;;;;;;;;18.10;81.90;;;;;;5029299;28;19909;-85
2022/10/15 12:06:05;;;;;;;;;;;18.10;82.30;;;;;;5036455;28;19939;-85
2022/10/15 12:08:33;;;;;;;;;;;18.10;82.50;;;;;;5034874;28;19909;-85
2022/10/15 12:11:05;;;;;;;;;;;18.10;83.10;;;;;;5014970;28;19910;-86
2022/10/15 12:13:44;;;;;;;;;;;18.20;82.70;;;;;;5013445;28;19909;-86
2022/10/15 12:16:18;;;;;;;;;;;18.20;82.20;;;;;;5021136;28;19920;-86
2022/10/15 12:18:46;;;;;;;;;;;18.10;82.50;;;;;;5017231;28;20339;-86
2022/10/15 12:21:32;;;;;;;;;;;18.20;82.10;;;;;;5033220;28;20339;-85
2022/10/15 12:23:58;;;;;;;;;;;18.10;82.30;;;;;;5032478;28;20127;-86
2022/10/15 12:26:23;;;;;;;;;;;18.20;82.50;;;;;;5032157;28;19999;-86
2022/10/15 12:28:49;;;;;;;;;;;18.30;82.10;;;;;;5010829;28;19981;-86
2022/10/15 12:31:19;;;;;;;;;;;18.30;81.90;;;;;;5022089;28;19920;-86
2022/10/15 12:33:48;;;;;;;;;;;18.30;81.50;;;;;;5013092;28;19918;-86
2022/10/15 12:36:26;;;;;;;;;;;18.30;81.80;;;;;;5014698;28;19910;-86
2022/10/15 12:38:52;;;;;;;;;;;18.30;82.10;;;;;;5032246;28;19928;-86
2022/10/15 12:41:17;;;;;;;;;;;18.20;81.90;;;;;;5014452;28;19909;-86
2022/10/15 12:43:45;;;;;;;;;;;18.10;82.30;;;;;;5020640;28;19989;-85
2022/10/15 12:46:10;;;;;;;;;;;18.20;82.50;;;;;;5029585;28;19909;-85
2022/10/15 12:48:41;;;;;;;;;;;18.30;82.40;;;;;;5032605;28;19909;-84
2022/10/15 12:51:22;;;;;;;;;;;18.20;82.30;;;;;;5033411;28;19920;-85
2022/10/15 12:53:48;;;;;;;;;;;18.20;82.10;;;;;;5030877;28;19917;-85
2022/10/15 12:56:16;;;;;;;;;;;18.20;82.50;;;;;;5027965;28;20008;-85
2022/10/15 12:58:54;;;;;;;;;;;18.20;82.20;;;;;;5012090;28;19910;-85
2022/10/15 13:01:19;;;;;;;;;;;18.30;82.40;;;;;;5011038;28;20295;-86
2022/10/15 13:03:51;;;;;;;;;;;18.40;82.10;;;;;;5012418;28;19913;-85
2022/10/15 13:06:19;;;;;;;;;;;18.50;82.00;;;;;;5012125;28;20046;-84
2022/10/15 13:09:00;;;;;;;;;;;18.50;82.00;;;;;;5012719;28;19921;-85
2022/10/15 13:11:27;;;;;;;;;;;18.50;82.20;;;;;;5016078;28;20291;-85
2022/10/15 13:14:01;;;;;;;;;;;18.50;82.20;;;;;;5018094;28;20312;-85
2022/10/15 13:16:27;;;;;;;;;;;18.50;82.20;;;;;;5019844;28;19920;-86
2022/10/15 13:18:54;;;;;;;;;;;18.50;82.30;;;;;;5012083;28;19917;-85
2022/10/15 13:21:20;;;;;;;;;;;18.50;81.90;;;;;;5011430;28;19910;-85
2022/10/15 13:23:46;;;;;;;;;;;18.50;82.10;;;;;;5015065;28;19905;-86
2022/10/15 13:26:19;;;;;;;;;;;18.50;81.90;;;;;;5023056;28;20257;-85
2022/10/15 13:28:46;;;;;;;;;;;18.50;82.30;;;;;;5013676;28;20413;-86
2022/10/15 13:31:20;;;;;;;;;;;18.60;82.00;;;;;;5026065;28;19910;-85
2022/10/15 13:33:47;;;;;;;;;;;18.60;82.00;;;;;;5033278;28;19948;-86
2022/10/15 13:36:18;;;;;;;;;;;18.60;82.10;;;;;;5016525;28;19914;-86
2022/10/15 13:38:50;;;;;;;;;;;18.70;82.10;;;;;;5011939;28;19910;-85
2022/10/15 13:41:21;;;;;;;;;;;18.80;81.70;;;;;;5010823;28;20606;-85
2022/10/15 13:43:49;;;;;;;;;;;18.90;81.20;;;;;;5012545;28;20008;-85
2022/10/15 13:46:15;;;;;;;;;;;19.00;80.90;;;;;;5011738;28;19917;-85
2022/10/15 13:48:40;;;;;;;;;;;19.10;80.30;;;;;;5010509;28;19909;-85
2022/10/15 13:51:08;;;;;;;;;;;19.10;79.80;;;;;;5012957;28;19913;-85
2022/10/15 13:53:34;;;;;;;;;;;19.10;80.40;;;;;;5012680;28;20045;-85
2022/10/15 13:56:01;;;;;;;;;;;19.10;80.30;;;;;;5012304;28;19913;-86
2022/10/15 13:58:28;;;;;;;;;;;19.10;80.10;;;;;;5012613;28;20291;-85
2022/10/15 14:01:03;;;;;;;;;;;19.20;80.30;;;;;;5016363;28;20371;-85
2022/10/15 14:03:30;;;;;;;;;;;19.20;80.40;;;;;;5011990;28;19910;-85
2022/10/15 14:05:57;;;;;;;;;;;19.10;80.20;;;;;;5010660;28;20286;-85
2022/10/15 14:08:27;;;;;;;;;;;19.10;79.90;;;;;;5012512;28;20387;-85
2022/10/15 14:10:54;;;;;;;;;;;19.00;80.50;;;;;;5010256;28;19921;-85
2022/10/15 14:13:20;;;;;;;;;;;19.10;80.30;;;;;;5012447;28;20298;-85
2022/10/15 14:16:00;;;;;;;;;;;19.10;80.50;;;;;;5025833;28;19917;-85
2022/10/15 14:18:34;;;;;;;;;;;19.10;80.50;;;;;;5022350;28;20008;-85
2022/10/15 14:21:00;;;;;;;;;;;19.10;80.30;;;;;;5010915;28;19910;-85
2022/10/15 14:23:27;;;;;;;;;;;19.10;80.40;;;;;;5012040;28;19916;-85
2022/10/15 14:25:58;;;;;;;;;;;19.10;80.20;;;;;;5010897;28;20371;-85